sensor_id;sensor_type;location;lat;lon;timestamp;P1;durP1;ratioP1;P2;durP2;ratioP2
33270;SDS011;53180;51.344;6.152;2022-10-16T00:01:28;1.50;;;1.40;;
33270;SDS011;53180;51.344;6.152;2022-10-16T00:03:58;9.90;;;1.83;;
33270;SDS011;53180;51.344;6.152;2022-10-16T00:06:28;1.70;;;1.45;;
33270;SDS011;53180;51.344;6.152;2022-10-16T00:08:58;3.22;;;1.63;;
33270;SDS011;53180;51.344;6.152;2022-10-16T00:11:28;1.50;;;1.20;;
33270;SDS011;53180;51.344;6.152;2022-10-16T00:14:00;1.83;;;1.52;;
33270;SDS011;53180;51.344;6.152;2022-10-16T00:16:30;1.80;;;1.40;;
33270;SDS011;53180;51.344;6.152;2022-10-16T00:18:59;7.78;;;1.58;;
33270;SDS011;53180;51.344;6.152;2022-10-16T00:21:28;2.75;;;1.38;;
33270;SDS011;53180;51.344;6.152;2022-10-16T00:23:58;3.77;;;1.50;;
33270;SDS011;53180;51.344;6.152;2022-10-16T00:26:35;1.60;;;1.33;;
33270;SDS011;53180;51.344;6.152;2022-10-16T00:29:04;1.92;;;1.50;;
33270;SDS011;53180;51.344;6.152;2022-10-16T00:31:33;1.48;;;1.38;;
33270;SDS011;53180;51.344;6.152;2022-10-16T00:34:02;1.42;;;1.33;;
33270;SDS011;53180;51.344;6.152;2022-10-16T00:36:30;3.38;;;1.25;;
33270;SDS011;53180;51.344;6.152;2022-10-16T00:38:59;2.00;;;1.42;;
33270;SDS011;53180;51.344;6.152;2022-10-16T00:41:28;5.55;;;1.33;;
33270;SDS011;53180;51.344;6.152;2022-10-16T00:43:59;6.25;;;1.40;;
33270;SDS011;53180;51.344;6.152;2022-10-16T00:46:29;3.15;;;1.38;;
33270;SDS011;53180;51.344;6.152;2022-10-16T00:49:04;2.10;;;1.45;;
33270;SDS011;53180;51.344;6.152;2022-10-16T00:51:36;1.80;;;1.20;;
33270;SDS011;53180;51.344;6.152;2022-10-16T00:56:37;3.40;;;1.10;;
33270;SDS011;53180;51.344;6.152;2022-10-16T00:59:08;2.40;;;1.40;;
33270;SDS011;53180;51.344;6.152;2022-10-16T01:01:43;1.60;;;1.23;;
33270;SDS011;53180;51.344;6.152;2022-10-16T01:04:11;3.33;;;1.23;;
33270;SDS011;53180;51.344;6.152;2022-10-16T01:06:41;2.67;;;1.30;;
33270;SDS011;53180;51.344;6.152;2022-10-16T01:09:20;1.40;;;1.10;;
33270;SDS011;53180;51.344;6.152;2022-10-16T01:11:54;1.25;;;1.13;;
33270;SDS011;53180;51.344;6.152;2022-10-16T01:14:34;1.55;;;1.20;;
33270;SDS011;53180;51.344;6.152;2022-10-16T01:17:11;2.50;;;1.42;;
33270;SDS011;53180;51.344;6.152;2022-10-16T01:19:47;1.35;;;1.10;;
33270;SDS011;53180;51.344;6.152;2022-10-16T01:22:33;1.10;;;1.00;;
33270;SDS011;53180;51.344;6.152;2022-10-16T01:25:09;2.08;;;1.25;;
33270;SDS011;53180;51.344;6.152;2022-10-16T01:27:46;1.50;;;1.15;;
33270;SDS011;53180;51.344;6.152;2022-10-16T01:30:16;1.27;;;1.02;;
33270;SDS011;53180;51.344;6.152;2022-10-16T01:32:49;1.25;;;1.15;;
33270;SDS011;53180;51.344;6.152;2022-10-16T01:35:23;3.25;;;1.50;;
33270;SDS011;53180;51.344;6.152;2022-10-16T01:37:55;1.15;;;1.05;;
33270;SDS011;53180;51.344;6.152;2022-10-16T01:40:30;1.30;;;1.20;;
33270;SDS011;53180;51.344;6.152;2022-10-16T01:43:04;1.55;;;1.10;;
33270;SDS011;53180;51.344;6.152;2022-10-16T01:45:36;2.47;;;1.10;;
33270;SDS011;53180;51.344;6.152;2022-10-16T01:48:05;1.10;;;1.00;;
33270;SDS011;53180;51.344;6.152;2022-10-16T01:50:37;1.15;;;0.95;;
33270;SDS011;53180;51.344;6.152;2022-10-16T01:53:07;1.25;;;1.00;;
33270;SDS011;53180;51.344;6.152;2022-10-16T01:55:40;1.10;;;1.00;;
33270;SDS011;53180;51.344;6.152;2022-10-16T01:58:13;1.70;;;1.10;;
33270;SDS011;53180;51.344;6.152;2022-10-16T02:00:43;0.70;;;0.70;;
33270;SDS011;53180;51.344;6.152;2022-10-16T02:03:15;1.48;;;1.10;;
33270;SDS011;53180;51.344;6.152;2022-10-16T02:05:46;1.38;;;1.10;;
33270;SDS011;53180;51.344;6.152;2022-10-16T02:08:19;1.77;;;0.90;;
33270;SDS011;53180;51.344;6.152;2022-10-16T02:10:47;0.88;;;0.88;;
33270;SDS011;53180;51.344;6.152;2022-10-16T02:13:19;1.10;;;1.00;;
33270;SDS011;53180;51.344;6.152;2022-10-16T02:15:53;1.23;;;0.85;;
33270;SDS011;53180;51.344;6.152;2022-10-16T02:18:21;1.40;;;1.02;;
33270;SDS011;53180;51.344;6.152;2022-10-16T02:20:53;1.40;;;1.23;;
33270;SDS011;53180;51.344;6.152;2022-10-16T02:23:27;1.00;;;0.95;;
33270;SDS011;53180;51.344;6.152;2022-10-16T02:26:03;1.50;;;1.05;;
33270;SDS011;53180;51.344;6.152;2022-10-16T02:28:37;2.40;;;1.00;;
33270;SDS011;53180;51.344;6.152;2022-10-16T02:31:10;0.90;;;0.90;;
33270;SDS011;53180;51.344;6.152;2022-10-16T02:33:40;1.05;;;1.00;;
33270;SDS011;53180;51.344;6.152;2022-10-16T02:36:10;2.30;;;1.08;;
33270;SDS011;53180;51.344;6.152;2022-10-16T02:38:39;1.13;;;0.90;;
33270;SDS011;53180;51.344;6.152;2022-10-16T02:41:08;1.10;;;1.00;;
33270;SDS011;53180;51.344;6.152;2022-10-16T02:43:38;1.00;;;1.00;;
33270;SDS011;53180;51.344;6.152;2022-10-16T02:46:06;1.10;;;1.00;;
33270;SDS011;53180;51.344;6.152;2022-10-16T02:48:35;0.98;;;0.90;;
33270;SDS011;53180;51.344;6.152;2022-10-16T02:51:03;1.27;;;1.10;;
33270;SDS011;53180;51.344;6.152;2022-10-16T02:53:32;1.35;;;1.08;;
33270;SDS011;53180;51.344;6.152;2022-10-16T02:56:00;0.85;;;0.85;;
33270;SDS011;53180;51.344;6.152;2022-10-16T02:58:28;1.20;;;1.05;;
33270;SDS011;53180;51.344;6.152;2022-10-16T03:00:58;1.10;;;1.00;;
33270;SDS011;53180;51.344;6.152;2022-10-16T03:03:26;0.90;;;0.85;;
33270;SDS011;53180;51.344;6.152;2022-10-16T03:05:54;1.33;;;1.20;;
33270;SDS011;53180;51.344;6.152;2022-10-16T03:08:23;1.20;;;0.95;;
33270;SDS011;53180;51.344;6.152;2022-10-16T03:10:51;1.77;;;1.08;;
33270;SDS011;53180;51.344;6.152;2022-10-16T03:13:20;1.90;;;1.10;;
33270;SDS011;53180;51.344;6.152;2022-10-16T03:15:48;0.90;;;0.90;;
33270;SDS011;53180;51.344;6.152;2022-10-16T03:18:18;1.35;;;1.05;;
33270;SDS011;53180;51.344;6.152;2022-10-16T03:20:46;6.68;;;1.10;;
33270;SDS011;53180;51.344;6.152;2022-10-16T03:23:14;2.60;;;0.98;;
33270;SDS011;53180;51.344;6.152;2022-10-16T03:25:43;2.58;;;1.30;;
33270;SDS011;53180;51.344;6.152;2022-10-16T03:28:13;1.10;;;1.00;;
33270;SDS011;53180;51.344;6.152;2022-10-16T03:30:42;0.98;;;0.98;;
33270;SDS011;53180;51.344;6.152;2022-10-16T03:33:11;2.10;;;1.05;;
33270;SDS011;53180;51.344;6.152;2022-10-16T03:35:40;1.23;;;1.00;;
33270;SDS011;53180;51.344;6.152;2022-10-16T03:38:09;1.23;;;0.90;;
33270;SDS011;53180;51.344;6.152;2022-10-16T03:40:37;3.58;;;1.15;;
33270;SDS011;53180;51.344;6.152;2022-10-16T03:43:05;1.10;;;1.00;;
33270;SDS011;53180;51.344;6.152;2022-10-16T03:45:34;6.00;;;1.30;;
33270;SDS011;53180;51.344;6.152;2022-10-16T03:48:02;1.17;;;1.08;;
33270;SDS011;53180;51.344;6.152;2022-10-16T03:50:30;1.88;;;1.30;;
33270;SDS011;53180;51.344;6.152;2022-10-16T03:53:00;1.00;;;1.00;;
33270;SDS011;53180;51.344;6.152;2022-10-16T03:55:28;1.27;;;1.17;;
33270;SDS011;53180;51.344;6.152;2022-10-16T03:57:56;1.20;;;1.10;;
33270;SDS011;53180;51.344;6.152;2022-10-16T04:00:25;0.90;;;0.88;;
33270;SDS011;53180;51.344;6.152;2022-10-16T04:02:53;1.05;;;0.95;;
33270;SDS011;53180;51.344;6.152;2022-10-16T04:05:21;1.20;;;1.10;;
33270;SDS011;53180;51.344;6.152;2022-10-16T04:07:50;5.28;;;1.15;;
33270;SDS011;53180;51.344;6.152;2022-10-16T04:10:19;1.30;;;1.20;;
33270;SDS011;53180;51.344;6.152;2022-10-16T04:12:47;1.25;;;1.10;;
33270;SDS011;53180;51.344;6.152;2022-10-16T04:15:16;0.85;;;0.85;;
33270;SDS011;53180;51.344;6.152;2022-10-16T04:17:44;1.13;;;1.02;;
33270;SDS011;53180;51.344;6.152;2022-10-16T04:20:13;1.75;;;1.40;;
33270;SDS011;53180;51.344;6.152;2022-10-16T04:22:41;1.23;;;1.13;;
33270;SDS011;53180;51.344;6.152;2022-10-16T04:25:09;1.40;;;1.30;;
33270;SDS011;53180;51.344;6.152;2022-10-16T04:27:40;2.15;;;1.27;;
33270;SDS011;53180;51.344;6.152;2022-10-16T04:30:11;1.67;;;1.30;;
33270;SDS011;53180;51.344;6.152;2022-10-16T04:32:40;1.00;;;1.00;;
33270;SDS011;53180;51.344;6.152;2022-10-16T04:35:08;2.13;;;1.00;;
33270;SDS011;53180;51.344;6.152;2022-10-16T04:37:36;1.73;;;1.10;;
33270;SDS011;53180;51.344;6.152;2022-10-16T04:40:05;1.40;;;1.10;;
33270;SDS011;53180;51.344;6.152;2022-10-16T04:42:34;1.20;;;1.10;;
33270;SDS011;53180;51.344;6.152;2022-10-16T04:45:05;1.33;;;1.23;;
33270;SDS011;53180;51.344;6.152;2022-10-16T04:47:40;1.42;;;1.20;;
33270;SDS011;53180;51.344;6.152;2022-10-16T04:50:08;1.52;;;1.20;;
33270;SDS011;53180;51.344;6.152;2022-10-16T04:52:37;1.40;;;1.25;;
33270;SDS011;53180;51.344;6.152;2022-10-16T04:55:05;1.27;;;1.17;;
33270;SDS011;53180;51.344;6.152;2022-10-16T04:57:34;1.65;;;0.98;;
33270;SDS011;53180;51.344;6.152;2022-10-16T05:00:03;1.58;;;1.10;;
33270;SDS011;53180;51.344;6.152;2022-10-16T05:02:34;1.55;;;1.20;;
33270;SDS011;53180;51.344;6.152;2022-10-16T05:05:02;1.50;;;1.30;;
33270;SDS011;53180;51.344;6.152;2022-10-16T05:07:32;1.23;;;1.10;;
33270;SDS011;53180;51.344;6.152;2022-10-16T05:10:00;1.25;;;1.10;;
33270;SDS011;53180;51.344;6.152;2022-10-16T05:12:28;1.55;;;1.10;;
33270;SDS011;53180;51.344;6.152;2022-10-16T05:14:56;1.73;;;1.52;;
33270;SDS011;53180;51.344;6.152;2022-10-16T05:17:26;2.13;;;1.42;;
33270;SDS011;53180;51.344;6.152;2022-10-16T05:19:55;1.40;;;1.20;;
33270;SDS011;53180;51.344;6.152;2022-10-16T05:22:23;1.90;;;1.60;;
33270;SDS011;53180;51.344;6.152;2022-10-16T05:24:52;5.40;;;1.17;;
33270;SDS011;53180;51.344;6.152;2022-10-16T05:27:20;2.10;;;1.30;;
33270;SDS011;53180;51.344;6.152;2022-10-16T05:29:49;2.17;;;1.23;;
33270;SDS011;53180;51.344;6.152;2022-10-16T05:32:18;1.35;;;1.23;;
33270;SDS011;53180;51.344;6.152;2022-10-16T05:34:48;1.23;;;1.13;;
33270;SDS011;53180;51.344;6.152;2022-10-16T05:37:16;1.52;;;1.20;;
33270;SDS011;53180;51.344;6.152;2022-10-16T05:39:44;2.22;;;1.58;;
33270;SDS011;53180;51.344;6.152;2022-10-16T05:42:12;1.50;;;1.40;;
33270;SDS011;53180;51.344;6.152;2022-10-16T05:44:41;1.23;;;1.13;;
33270;SDS011;53180;51.344;6.152;2022-10-16T05:47:09;1.95;;;1.60;;
33270;SDS011;53180;51.344;6.152;2022-10-16T05:49:38;2.75;;;1.40;;
33270;SDS011;53180;51.344;6.152;2022-10-16T05:52:08;1.73;;;1.33;;
33270;SDS011;53180;51.344;6.152;2022-10-16T05:54:36;2.38;;;1.38;;
33270;SDS011;53180;51.344;6.152;2022-10-16T05:57:04;1.30;;;1.17;;
33270;SDS011;53180;51.344;6.152;2022-10-16T05:59:33;1.20;;;1.10;;
33270;SDS011;53180;51.344;6.152;2022-10-16T06:02:01;1.55;;;1.45;;
33270;SDS011;53180;51.344;6.152;2022-10-16T06:04:30;2.33;;;1.30;;
33270;SDS011;53180;51.344;6.152;2022-10-16T06:06:58;1.73;;;1.35;;
33270;SDS011;53180;51.344;6.152;2022-10-16T06:09:29;1.60;;;1.30;;
33270;SDS011;53180;51.344;6.152;2022-10-16T06:11:57;1.30;;;1.20;;
33270;SDS011;53180;51.344;6.152;2022-10-16T06:14:25;2.08;;;1.48;;
33270;SDS011;53180;51.344;6.152;2022-10-16T06:16:54;1.63;;;1.30;;
33270;SDS011;53180;51.344;6.152;2022-10-16T06:19:22;1.13;;;1.02;;
33270;SDS011;53180;51.344;6.152;2022-10-16T06:21:50;4.78;;;1.30;;
33270;SDS011;53180;51.344;6.152;2022-10-16T06:24:19;1.52;;;1.42;;
33270;SDS011;53180;51.344;6.152;2022-10-16T06:26:49;1.30;;;1.20;;
33270;SDS011;53180;51.344;6.152;2022-10-16T06:29:17;2.92;;;1.60;;
33270;SDS011;53180;51.344;6.152;2022-10-16T06:31:45;1.40;;;1.30;;
33270;SDS011;53180;51.344;6.152;2022-10-16T06:34:13;2.35;;;1.40;;
33270;SDS011;53180;51.344;6.152;2022-10-16T06:36:42;2.72;;;1.70;;
33270;SDS011;53180;51.344;6.152;2022-10-16T06:39:10;1.83;;;1.30;;
33270;SDS011;53180;51.344;6.152;2022-10-16T06:41:38;1.92;;;1.42;;
33270;SDS011;53180;51.344;6.152;2022-10-16T06:44:08;2.20;;;1.25;;
33270;SDS011;53180;51.344;6.152;2022-10-16T06:46:36;2.60;;;1.52;;
33270;SDS011;53180;51.344;6.152;2022-10-16T06:49:05;3.95;;;1.35;;
33270;SDS011;53180;51.344;6.152;2022-10-16T06:51:33;3.47;;;1.80;;
33270;SDS011;53180;51.344;6.152;2022-10-16T06:54:08;2.10;;;1.40;;
33270;SDS011;53180;51.344;6.152;2022-10-16T06:56:36;2.00;;;1.23;;
33270;SDS011;53180;51.344;6.152;2022-10-16T06:59:10;4.72;;;1.40;;
33270;SDS011;53180;51.344;6.152;2022-10-16T07:01:39;1.55;;;1.20;;
33270;SDS011;53180;51.344;6.152;2022-10-16T07:04:07;3.80;;;1.50;;
33270;SDS011;53180;51.344;6.152;2022-10-16T07:06:37;1.17;;;1.05;;
33270;SDS011;53180;51.344;6.152;2022-10-16T07:09:09;1.30;;;1.20;;
33270;SDS011;53180;51.344;6.152;2022-10-16T07:11:39;2.22;;;1.38;;
33270;SDS011;53180;51.344;6.152;2022-10-16T07:14:12;1.60;;;1.50;;
33270;SDS011;53180;51.344;6.152;2022-10-16T07:16:44;2.15;;;1.48;;
33270;SDS011;53180;51.344;6.152;2022-10-16T07:19:13;2.63;;;1.48;;
33270;SDS011;53180;51.344;6.152;2022-10-16T07:21:43;2.08;;;1.40;;
33270;SDS011;53180;51.344;6.152;2022-10-16T07:24:12;2.05;;;1.50;;
33270;SDS011;53180;51.344;6.152;2022-10-16T07:26:43;1.50;;;1.40;;
33270;SDS011;53180;51.344;6.152;2022-10-16T07:29:15;1.52;;;1.42;;
33270;SDS011;53180;51.344;6.152;2022-10-16T07:31:45;2.30;;;1.77;;
33270;SDS011;53180;51.344;6.152;2022-10-16T07:34:14;3.78;;;1.67;;
33270;SDS011;53180;51.344;6.152;2022-10-16T07:36:44;3.30;;;1.60;;
33270;SDS011;53180;51.344;6.152;2022-10-16T07:39:15;1.42;;;1.33;;
33270;SDS011;53180;51.344;6.152;2022-10-16T07:41:43;1.85;;;1.42;;
33270;SDS011;53180;51.344;6.152;2022-10-16T07:44:12;2.10;;;1.88;;
33270;SDS011;53180;51.344;6.152;2022-10-16T07:46:41;3.58;;;1.65;;
33270;SDS011;53180;51.344;6.152;2022-10-16T07:49:10;2.03;;;1.70;;
33270;SDS011;53180;51.344;6.152;2022-10-16T07:51:38;2.17;;;1.50;;
33270;SDS011;53180;51.344;6.152;2022-10-16T07:54:07;2.85;;;1.58;;
33270;SDS011;53180;51.344;6.152;2022-10-16T07:56:36;1.70;;;1.60;;
33270;SDS011;53180;51.344;6.152;2022-10-16T07:59:09;3.05;;;1.45;;
33270;SDS011;53180;51.344;6.152;2022-10-16T08:01:37;1.45;;;1.35;;
33270;SDS011;53180;51.344;6.152;2022-10-16T08:04:07;1.55;;;1.27;;
33270;SDS011;53180;51.344;6.152;2022-10-16T08:06:37;1.90;;;1.60;;
33270;SDS011;53180;51.344;6.152;2022-10-16T08:09:08;1.60;;;1.38;;
33270;SDS011;53180;51.344;6.152;2022-10-16T08:11:36;1.40;;;1.30;;
33270;SDS011;53180;51.344;6.152;2022-10-16T08:14:05;1.30;;;1.20;;
33270;SDS011;53180;51.344;6.152;2022-10-16T08:16:33;2.10;;;1.40;;
33270;SDS011;53180;51.344;6.152;2022-10-16T08:19:01;13.50;;;6.70;;
33270;SDS011;53180;51.344;6.152;2022-10-16T08:21:31;6.10;;;3.15;;
33270;SDS011;53180;51.344;6.152;2022-10-16T08:23:59;4.22;;;1.83;;
33270;SDS011;53180;51.344;6.152;2022-10-16T08:26:27;2.75;;;2.17;;
33270;SDS011;53180;51.344;6.152;2022-10-16T08:28:56;1.25;;;1.15;;
33270;SDS011;53180;51.344;6.152;2022-10-16T08:31:25;1.33;;;1.20;;
33270;SDS011;53180;51.344;6.152;2022-10-16T08:33:53;1.52;;;1.20;;
33270;SDS011;53180;51.344;6.152;2022-10-16T08:36:21;4.05;;;1.15;;
33270;SDS011;53180;51.344;6.152;2022-10-16T08:38:51;6.20;;;1.20;;
33270;SDS011;53180;51.344;6.152;2022-10-16T08:41:22;1.42;;;1.02;;
33270;SDS011;53180;51.344;6.152;2022-10-16T08:44:23;0.95;;;0.90;;
33270;SDS011;53180;51.344;6.152;2022-10-16T08:47:31;1.00;;;1.00;;
33270;SDS011;53180;51.344;6.152;2022-10-16T08:50:13;1.55;;;1.13;;
33270;SDS011;53180;51.344;6.152;2022-10-16T08:52:48;0.90;;;0.82;;
33270;SDS011;53180;51.344;6.152;2022-10-16T08:55:28;5.43;;;1.00;;
33270;SDS011;53180;51.344;6.152;2022-10-16T08:58:00;1.75;;;0.90;;
33270;SDS011;53180;51.344;6.152;2022-10-16T09:00:29;2.20;;;0.88;;
33270;SDS011;53180;51.344;6.152;2022-10-16T09:03:00;1.77;;;1.13;;
33270;SDS011;53180;51.344;6.152;2022-10-16T09:05:44;4.75;;;1.13;;
33270;SDS011;53180;51.344;6.152;2022-10-16T09:08:29;0.75;;;0.75;;
33270;SDS011;53180;51.344;6.152;2022-10-16T09:11:11;1.55;;;1.00;;
33270;SDS011;53180;51.344;6.152;2022-10-16T09:13:48;0.82;;;0.63;;
33270;SDS011;53180;51.344;6.152;2022-10-16T09:16:24;0.70;;;0.70;;
33270;SDS011;53180;51.344;6.152;2022-10-16T09:19:00;0.93;;;0.70;;
33270;SDS011;53180;51.344;6.152;2022-10-16T09:21:37;0.88;;;0.75;;
33270;SDS011;53180;51.344;6.152;2022-10-16T09:24:09;1.27;;;0.80;;
33270;SDS011;53180;51.344;6.152;2022-10-16T09:26:42;0.50;;;0.50;;
33270;SDS011;53180;51.344;6.152;2022-10-16T09:29:12;8.50;;;0.80;;
33270;SDS011;53180;51.344;6.152;2022-10-16T09:31:41;0.63;;;0.47;;
33270;SDS011;53180;51.344;6.152;2022-10-16T09:34:12;1.17;;;0.73;;
33270;SDS011;53180;51.344;6.152;2022-10-16T09:36:58;0.50;;;0.50;;
33270;SDS011;53180;51.344;6.152;2022-10-16T09:39:30;0.63;;;0.50;;
33270;SDS011;53180;51.344;6.152;2022-10-16T09:44:46;0.88;;;0.57;;
33270;SDS011;53180;51.344;6.152;2022-10-16T09:47:17;2.95;;;0.60;;
33270;SDS011;53180;51.344;6.152;2022-10-16T09:49:53;0.65;;;0.40;;
33270;SDS011;53180;51.344;6.152;2022-10-16T09:52:24;1.33;;;0.55;;
33270;SDS011;53180;51.344;6.152;2022-10-16T09:54:53;1.77;;;0.68;;
33270;SDS011;53180;51.344;6.152;2022-10-16T09:57:25;1.35;;;0.60;;
33270;SDS011;53180;51.344;6.152;2022-10-16T09:59:55;1.77;;;0.50;;
33270;SDS011;53180;51.344;6.152;2022-10-16T10:04:57;1.05;;;0.57;;
33270;SDS011;53180;51.344;6.152;2022-10-16T10:07:26;1.25;;;0.40;;
33270;SDS011;53180;51.344;6.152;2022-10-16T10:09:56;0.63;;;0.40;;
33270;SDS011;53180;51.344;6.152;2022-10-16T10:12:26;0.65;;;0.40;;
33270;SDS011;53180;51.344;6.152;2022-10-16T10:15:03;1.02;;;0.38;;
33270;SDS011;53180;51.344;6.152;2022-10-16T10:17:44;0.85;;;0.40;;
33270;SDS011;53180;51.344;6.152;2022-10-16T10:20:25;0.77;;;0.50;;
33270;SDS011;53180;51.344;6.152;2022-10-16T10:22:56;2.25;;;0.40;;
33270;SDS011;53180;51.344;6.152;2022-10-16T10:25:32;2.08;;;1.00;;
33270;SDS011;53180;51.344;6.152;2022-10-16T10:28:18;4.05;;;1.75;;
33270;SDS011;53180;51.344;6.152;2022-10-16T10:31:12;2.58;;;1.23;;
33270;SDS011;53180;51.344;6.152;2022-10-16T10:33:49;2.90;;;0.55;;
33270;SDS011;53180;51.344;6.152;2022-10-16T10:36:27;2.35;;;0.70;;
33270;SDS011;53180;51.344;6.152;2022-10-16T10:38:59;3.70;;;0.60;;
33270;SDS011;53180;51.344;6.152;2022-10-16T10:41:37;1.38;;;0.50;;
33270;SDS011;53180;51.344;6.152;2022-10-16T10:44:36;3.13;;;0.45;;
33270;SDS011;53180;51.344;6.152;2022-10-16T10:47:22;1.13;;;0.63;;
33270;SDS011;53180;51.344;6.152;2022-10-16T10:50:02;1.20;;;0.60;;
33270;SDS011;53180;51.344;6.152;2022-10-16T10:52:43;0.32;;;0.30;;
33270;SDS011;53180;51.344;6.152;2022-10-16T10:55:31;0.60;;;0.40;;
33270;SDS011;53180;51.344;6.152;2022-10-16T10:58:13;3.60;;;0.30;;
33270;SDS011;53180;51.344;6.152;2022-10-16T11:01:10;1.55;;;0.50;;
33270;SDS011;53180;51.344;6.152;2022-10-16T11:03:45;2.28;;;0.30;;
33270;SDS011;53180;51.344;6.152;2022-10-16T11:06:39;2.50;;;0.38;;
33270;SDS011;53180;51.344;6.152;2022-10-16T11:09:12;0.35;;;0.30;;
33270;SDS011;53180;51.344;6.152;2022-10-16T11:11:47;0.75;;;0.50;;
33270;SDS011;53180;51.344;6.152;2022-10-16T11:14:21;0.85;;;0.45;;
33270;SDS011;53180;51.344;6.152;2022-10-16T11:16:56;0.63;;;0.32;;
33270;SDS011;53180;51.344;6.152;2022-10-16T11:19:33;2.67;;;0.40;;
33270;SDS011;53180;51.344;6.152;2022-10-16T11:22:09;0.73;;;0.30;;
33270;SDS011;53180;51.344;6.152;2022-10-16T11:24:45;0.52;;;0.30;;
33270;SDS011;53180;51.344;6.152;2022-10-16T11:27:21;0.90;;;0.40;;
33270;SDS011;53180;51.344;6.152;2022-10-16T11:30:04;1.23;;;0.40;;
33270;SDS011;53180;51.344;6.152;2022-10-16T11:32:46;0.90;;;0.30;;
33270;SDS011;53180;51.344;6.152;2022-10-16T11:35:25;2.45;;;0.35;;
33270;SDS011;53180;51.344;6.152;2022-10-16T11:38:09;2.47;;;0.50;;
33270;SDS011;53180;51.344;6.152;2022-10-16T11:40:49;0.82;;;0.20;;
33270;SDS011;53180;51.344;6.152;2022-10-16T11:43:25;1.75;;;0.43;;
33270;SDS011;53180;51.344;6.152;2022-10-16T11:45:58;0.40;;;0.30;;
33270;SDS011;53180;51.344;6.152;2022-10-16T11:48:38;0.30;;;0.30;;
33270;SDS011;53180;51.344;6.152;2022-10-16T11:51:17;1.33;;;0.50;;
33270;SDS011;53180;51.344;6.152;2022-10-16T11:53:53;1.17;;;0.43;;
33270;SDS011;53180;51.344;6.152;2022-10-16T11:56:28;1.52;;;0.40;;
33270;SDS011;53180;51.344;6.152;2022-10-16T11:59:00;0.43;;;0.30;;
33270;SDS011;53180;51.344;6.152;2022-10-16T12:01:33;0.80;;;0.55;;
33270;SDS011;53180;51.344;6.152;2022-10-16T12:04:19;0.45;;;0.30;;
33270;SDS011;53180;51.344;6.152;2022-10-16T12:06:57;0.30;;;0.30;;
33270;SDS011;53180;51.344;6.152;2022-10-16T12:09:32;1.60;;;0.40;;
33270;SDS011;53180;51.344;6.152;2022-10-16T12:12:04;3.20;;;0.45;;
33270;SDS011;53180;51.344;6.152;2022-10-16T12:15:02;1.00;;;0.32;;
33270;SDS011;53180;51.344;6.152;2022-10-16T12:17:55;0.65;;;0.40;;
33270;SDS011;53180;51.344;6.152;2022-10-16T12:20:27;1.25;;;0.40;;
33270;SDS011;53180;51.344;6.152;2022-10-16T12:22:59;0.20;;;0.20;;
33270;SDS011;53180;51.344;6.152;2022-10-16T12:25:30;0.43;;;0.25;;
33270;SDS011;53180;51.344;6.152;2022-10-16T12:30:31;1.55;;;0.35;;
33270;SDS011;53180;51.344;6.152;2022-10-16T12:33:02;4.13;;;0.47;;
33270;SDS011;53180;51.344;6.152;2022-10-16T12:35:35;0.30;;;0.30;;
33270;SDS011;53180;51.344;6.152;2022-10-16T12:38:16;0.88;;;0.30;;
33270;SDS011;53180;51.344;6.152;2022-10-16T12:40:47;0.60;;;0.32;;
33270;SDS011;53180;51.344;6.152;2022-10-16T12:43:27;3.40;;;0.50;;
33270;SDS011;53180;51.344;6.152;2022-10-16T12:46:18;0.45;;;0.30;;
33270;SDS011;53180;51.344;6.152;2022-10-16T12:49:06;1.42;;;0.45;;
33270;SDS011;53180;51.344;6.152;2022-10-16T12:51:57;4.28;;;0.40;;
33270;SDS011;53180;51.344;6.152;2022-10-16T12:54:27;0.68;;;0.28;;
33270;SDS011;53180;51.344;6.152;2022-10-16T12:57:04;0.88;;;0.50;;
33270;SDS011;53180;51.344;6.152;2022-10-16T12:59:53;1.17;;;0.50;;
33270;SDS011;53180;51.344;6.152;2022-10-16T13:05:48;1.17;;;0.50;;
33270;SDS011;53180;51.344;6.152;2022-10-16T13:08:38;6.88;;;2.45;;
33270;SDS011;53180;51.344;6.152;2022-10-16T13:11:44;12.90;;;4.13;;
33270;SDS011;53180;51.344;6.152;2022-10-16T13:14:47;3.13;;;1.42;;
33270;SDS011;53180;51.344;6.152;2022-10-16T13:17:49;2.65;;;1.27;;
33270;SDS011;53180;51.344;6.152;2022-10-16T13:20:28;6.22;;;0.60;;
33270;SDS011;53180;51.344;6.152;2022-10-16T13:23:04;1.60;;;0.45;;
33270;SDS011;53180;51.344;6.152;2022-10-16T13:25:46;0.25;;;0.20;;
33270;SDS011;53180;51.344;6.152;2022-10-16T13:28:27;0.40;;;0.40;;
33270;SDS011;53180;51.344;6.152;2022-10-16T13:31:00;0.35;;;0.30;;
33270;SDS011;53180;51.344;6.152;2022-10-16T13:33:31;0.83;;;0.43;;
33270;SDS011;53180;51.344;6.152;2022-10-16T13:36:02;0.93;;;0.30;;
33270;SDS011;53180;51.344;6.152;2022-10-16T13:38:32;0.77;;;0.32;;
33270;SDS011;53180;51.344;6.152;2022-10-16T13:41:04;1.35;;;0.40;;
33270;SDS011;53180;51.344;6.152;2022-10-16T13:43:41;0.50;;;0.30;;
33270;SDS011;53180;51.344;6.152;2022-10-16T13:46:13;4.80;;;0.50;;
33270;SDS011;53180;51.344;6.152;2022-10-16T13:48:44;2.58;;;0.43;;
33270;SDS011;53180;51.344;6.152;2022-10-16T13:51:25;1.73;;;0.30;;
33270;SDS011;53180;51.344;6.152;2022-10-16T13:53:54;0.52;;;0.28;;
33270;SDS011;53180;51.344;6.152;2022-10-16T13:56:26;0.27;;;0.27;;
33270;SDS011;53180;51.344;6.152;2022-10-16T13:59:00;0.95;;;0.40;;
33270;SDS011;53180;51.344;6.152;2022-10-16T14:01:30;0.90;;;0.30;;
33270;SDS011;53180;51.344;6.152;2022-10-16T14:04:01;1.50;;;0.40;;
33270;SDS011;53180;51.344;6.152;2022-10-16T14:06:32;1.92;;;0.47;;
33270;SDS011;53180;51.344;6.152;2022-10-16T14:09:04;2.08;;;0.50;;
33270;SDS011;53180;51.344;6.152;2022-10-16T14:11:42;0.73;;;0.35;;
33270;SDS011;53180;51.344;6.152;2022-10-16T14:14:15;3.60;;;0.47;;
33270;SDS011;53180;51.344;6.152;2022-10-16T14:16:43;0.20;;;0.20;;
33270;SDS011;53180;51.344;6.152;2022-10-16T14:19:14;0.77;;;0.40;;
33270;SDS011;53180;51.344;6.152;2022-10-16T14:21:48;0.60;;;0.30;;
33270;SDS011;53180;51.344;6.152;2022-10-16T14:24:25;0.40;;;0.30;;
33270;SDS011;53180;51.344;6.152;2022-10-16T14:26:56;0.40;;;0.35;;
33270;SDS011;53180;51.344;6.152;2022-10-16T14:29:26;0.52;;;0.32;;
33270;SDS011;53180;51.344;6.152;2022-10-16T14:31:58;0.68;;;0.40;;
33270;SDS011;53180;51.344;6.152;2022-10-16T14:34:29;1.00;;;0.60;;
33270;SDS011;53180;51.344;6.152;2022-10-16T14:37:00;1.70;;;0.40;;
33270;SDS011;53180;51.344;6.152;2022-10-16T14:39:34;1.35;;;0.40;;
33270;SDS011;53180;51.344;6.152;2022-10-16T14:42:05;1.13;;;0.40;;
33270;SDS011;53180;51.344;6.152;2022-10-16T14:44:45;0.32;;;0.30;;
33270;SDS011;53180;51.344;6.152;2022-10-16T14:47:17;0.73;;;0.40;;
33270;SDS011;53180;51.344;6.152;2022-10-16T14:49:51;1.30;;;0.50;;
33270;SDS011;53180;51.344;6.152;2022-10-16T14:52:21;0.73;;;0.40;;
33270;SDS011;53180;51.344;6.152;2022-10-16T14:54:49;0.90;;;0.57;;
33270;SDS011;53180;51.344;6.152;2022-10-16T14:57:22;2.17;;;0.60;;
33270;SDS011;53180;51.344;6.152;2022-10-16T14:59:55;0.30;;;0.30;;
33270;SDS011;53180;51.344;6.152;2022-10-16T15:02:25;0.63;;;0.40;;
33270;SDS011;53180;51.344;6.152;2022-10-16T15:04:57;2.55;;;0.50;;
33270;SDS011;53180;51.344;6.152;2022-10-16T15:07:35;0.70;;;0.32;;
33270;SDS011;53180;51.344;6.152;2022-10-16T15:10:03;1.85;;;0.65;;
33270;SDS011;53180;51.344;6.152;2022-10-16T15:12:33;1.42;;;0.70;;
33270;SDS011;53180;51.344;6.152;2022-10-16T15:15:05;6.60;;;0.73;;
33270;SDS011;53180;51.344;6.152;2022-10-16T15:17:52;0.95;;;0.47;;
33270;SDS011;53180;51.344;6.152;2022-10-16T15:20:23;0.80;;;0.45;;
33270;SDS011;53180;51.344;6.152;2022-10-16T15:22:53;0.35;;;0.35;;
33270;SDS011;53180;51.344;6.152;2022-10-16T15:25:27;0.90;;;0.52;;
33270;SDS011;53180;51.344;6.152;2022-10-16T15:28:03;0.98;;;0.50;;
33270;SDS011;53180;51.344;6.152;2022-10-16T15:30:33;2.40;;;1.10;;
33270;SDS011;53180;51.344;6.152;2022-10-16T15:33:02;1.90;;;0.52;;
33270;SDS011;53180;51.344;6.152;2022-10-16T15:35:32;1.42;;;0.68;;